createdAt,value
2023-02-12T00:01:13.307Z,98191.50
2023-02-12T00:03:41.066Z,98185.38
2023-02-12T00:06:08.849Z,98190.53
2023-02-12T00:08:36.073Z,98193.09
2023-02-12T00:11:16.067Z,98193.22
2023-02-12T00:13:43.462Z,98196.66
2023-02-12T00:16:13.718Z,98189.94
2023-02-12T00:18:40.727Z,98197.56
2023-02-12T00:21:11.473Z,98194.06
2023-02-12T00:23:39.565Z,98189.94
2023-02-12T00:26:08.652Z,98187.41
2023-02-12T00:28:36.274Z,98187.38
2023-02-12T00:31:14.403Z,98189.88
2023-02-12T00:33:42.159Z,98187.25
2023-02-12T00:36:14.694Z,98185.56
2023-02-12T00:38:41.688Z,98176.19
2023-02-12T00:41:09.205Z,98166.66
2023-02-12T00:43:36.197Z,98180.31
2023-02-12T00:46:03.564Z,98179.47
2023-02-12T00:48:31.392Z,98176.91
2023-02-12T00:50:58.344Z,98179.56
2023-02-12T00:53:26.039Z,98188.94
2023-02-12T00:55:53.770Z,98177.88
2023-02-12T00:58:21.945Z,98178.69
2023-02-12T01:00:49.214Z,98181.28
2023-02-12T01:03:19.568Z,98177.22
2023-02-12T01:05:47.105Z,98175.50
2023-02-12T01:08:16.261Z,98178.78
2023-02-12T01:10:44.588Z,98170.38
2023-02-12T01:13:16.389Z,98174.59
2023-02-12T01:15:43.432Z,98170.41
2023-02-12T01:18:11.380Z,98168.75
2023-02-12T01:20:40.842Z,98165.38
2023-02-12T01:23:08.680Z,98174.94
2023-02-12T01:25:35.915Z,98162.13
2023-02-12T01:28:03.481Z,98160.56
2023-02-12T01:30:30.273Z,98156.25
2023-02-12T01:33:01.127Z,98152.81
2023-02-12T01:35:28.606Z,98150.31
2023-02-12T01:37:57.457Z,98154.78
2023-02-12T01:40:25.610Z,98147.88
2023-02-12T01:42:52.929Z,98157.28
2023-02-12T01:45:23.008Z,98145.28
2023-02-12T01:47:50.046Z,98142.91
2023-02-12T01:50:20.734Z,98130.06
2023-02-12T01:52:54.156Z,98131.00
2023-02-12T01:55:22.661Z,98141.31
2023-02-12T01:57:49.813Z,98121.69
2023-02-12T02:00:21.449Z,98125.16
2023-02-12T02:02:53.714Z,98113.22
2023-02-12T02:05:39.252Z,98106.34
2023-02-12T02:08:06.703Z,98114.91
2023-02-12T02:10:34.168Z,98119.94
2023-02-12T02:13:20.538Z,98120.00
2023-02-12T02:15:53.515Z,98123.44
2023-02-12T02:18:48.243Z,98120.16
2023-02-12T02:21:41.930Z,98108.19
2023-02-12T02:24:48.440Z,98111.75
2023-02-12T02:27:52.455Z,98116.97
2023-02-12T02:30:51.364Z,98134.91
2023-02-12T02:33:39.944Z,98134.13
2023-02-12T02:36:50.827Z,98119.53
2023-02-12T02:39:49.001Z,98118.66
2023-02-12T02:42:54.928Z,98119.56
2023-02-12T02:45:44.156Z,98100.88
2023-02-12T02:48:23.877Z,98107.56
2023-02-12T02:50:59.978Z,98106.69
2023-02-12T02:53:44.206Z,98124.53
2023-02-12T02:56:16.221Z,98117.66
2023-02-12T02:59:06.367Z,98120.97
2023-02-12T03:01:40.392Z,98116.66
2023-02-12T03:04:12.853Z,98111.44
2023-02-12T03:06:47.749Z,98109.66
2023-02-12T03:09:42.583Z,98121.50
2023-02-12T03:12:15.652Z,98108.78
2023-02-12T03:14:53.372Z,98117.94
2023-02-12T03:17:24.130Z,98118.75
2023-02-12T03:19:57.765Z,98110.19
2023-02-12T03:22:53.651Z,98114.41
2023-02-12T03:25:28.766Z,98114.41
2023-02-12T03:30:18.887Z,98122.78
2023-02-12T03:33:06.026Z,98107.31
2023-02-12T03:35:42.564Z,98106.44
2023-02-12T03:38:30.837Z,98094.41
2023-02-12T03:41:14.204Z,98094.34
2023-02-12T03:43:51.778Z,98096.72
2023-02-12T03:46:43.464Z,98096.63
2023-02-12T03:49:15.853Z,98097.41
2023-02-12T03:51:45.490Z,98110.28
2023-02-12T03:54:17.377Z,98107.72
2023-02-12T03:56:54.325Z,98093.88
2023-02-12T03:59:25.931Z,98094.72
2023-02-12T04:01:56.195Z,98080.13
2023-02-12T04:04:25.168Z,98098.13
2023-02-12T04:06:53.870Z,98106.53
2023-02-12T04:09:23.122Z,98091.13
2023-02-12T04:12:17.150Z,98091.00
2023-02-12T04:14:53.606Z,98086.63
2023-02-12T04:17:46.970Z,98100.31
2023-02-12T04:20:32.373Z,98089.22
2023-02-12T04:23:10.593Z,98090.91
2023-02-12T04:26:03.379Z,98101.03
2023-02-12T04:29:15.703Z,98091.69
2023-02-12T04:31:47.946Z,98102.81
2023-02-12T04:34:21.016Z,98095.78
2023-02-12T04:37:04.653Z,98083.88
2023-02-12T04:39:37.331Z,98080.34
2023-02-12T04:42:05.294Z,98094.75
2023-02-12T04:44:35.939Z,98087.84
2023-02-12T04:47:03.549Z,98088.81
2023-02-12T04:49:30.754Z,98087.91
2023-02-12T04:51:58.227Z,98089.38
2023-02-12T04:54:25.948Z,98091.81
2023-02-12T04:56:52.864Z,98106.44
2023-02-12T04:59:19.594Z,98107.19
2023-02-12T05:01:46.794Z,98119.38
2023-02-12T05:04:15.888Z,98136.34
2023-02-12T05:06:44.096Z,98140.59
2023-02-12T05:09:15.539Z,98145.66
2023-02-12T05:11:43.082Z,98149.75
2023-02-12T05:14:10.749Z,98155.56
2023-02-12T05:16:39.238Z,98162.34
2023-02-12T05:19:06.409Z,98167.34
2023-02-12T05:21:33.528Z,98165.59
2023-02-12T05:24:02.679Z,98171.47
2023-02-12T05:26:29.757Z,98176.59
2023-02-12T05:28:57.397Z,98179.13
2023-02-12T05:31:24.721Z,98174.75
2023-02-12T05:33:52.481Z,98174.81
2023-02-12T05:36:22.142Z,98182.47
2023-02-12T05:38:50.084Z,98188.28
2023-02-12T05:41:21.090Z,98189.78
2023-02-12T05:43:49.817Z,98191.66
2023-02-12T05:46:18.495Z,98189.91
2023-02-12T05:48:45.963Z,98204.47
2023-02-12T05:51:22.180Z,98199.97
2023-02-12T05:53:51.400Z,98194.84
2023-02-12T05:56:21.736Z,98203.22
2023-02-12T05:58:58.072Z,98202.22
2023-02-12T06:01:39.518Z,98205.53
2023-02-12T06:04:09.525Z,98207.16
2023-02-12T06:06:36.819Z,98208.75
2023-02-12T06:09:04.380Z,98214.66
2023-02-12T06:11:31.531Z,98215.44
2023-02-12T06:13:58.701Z,98216.13
2023-02-12T06:16:29.412Z,98216.97
2023-02-12T06:18:58.007Z,98210.66
2023-02-12T06:21:26.906Z,98215.59
2023-02-12T06:23:54.213Z,98213.34
2023-02-12T06:26:22.232Z,98214.25
2023-02-12T06:28:49.795Z,98224.81
2023-02-12T06:31:29.808Z,98219.56
2023-02-12T06:33:59.199Z,98230.53
2023-02-12T06:36:28.872Z,98231.38
2023-02-12T06:38:56.401Z,98237.94
2023-02-12T06:41:24.170Z,98238.38
2023-02-12T06:43:51.456Z,98245.66
2023-02-12T06:46:18.676Z,98244.56
2023-02-12T06:48:46.026Z,98247.03
2023-02-12T06:51:14.832Z,98243.50
2023-02-12T06:53:42.376Z,98244.22
2023-02-12T06:56:13.434Z,98245.75
2023-02-12T06:58:43.095Z,98245.50
2023-02-12T07:01:18.092Z,98251.91
2023-02-12T07:03:49.927Z,98251.38
2023-02-12T07:06:17.081Z,98256.38
2023-02-12T07:08:44.139Z,98255.63
2023-02-12T07:11:11.867Z,98261.47
2023-02-12T07:13:41.078Z,98254.97
2023-02-12T07:16:14.271Z,98257.78
2023-02-12T07:18:42.361Z,98253.84
2023-02-12T07:21:09.907Z,98260.41
2023-02-12T07:23:37.146Z,98264.34
2023-02-12T07:26:07.147Z,98263.16
2023-02-12T07:28:34.987Z,98265.34
2023-02-12T07:31:14.166Z,98268.47
2023-02-12T07:33:42.344Z,98267.22
2023-02-12T07:36:15.108Z,98263.38
2023-02-12T07:38:42.858Z,98272.50
2023-02-12T07:41:13.018Z,98265.31
2023-02-12T07:43:41.851Z,98267.53
2023-02-12T07:46:13.945Z,98264.88
2023-02-12T07:48:41.206Z,98274.56
2023-02-12T07:51:11.281Z,98269.16
2023-02-12T07:53:41.178Z,98265.31
2023-02-12T08:23:46.661Z,98279.84
2023-02-12T08:26:30.742Z,98280.75
2023-02-12T08:29:09.054Z,98282.34
2023-02-12T08:31:38.861Z,98279.03
2023-02-12T08:34:06.436Z,98293.16
2023-02-12T08:36:39.207Z,98307.50
2023-02-12T08:39:08.528Z,98309.69
2023-02-12T08:41:38.434Z,98306.84
2023-02-12T08:44:06.263Z,98298.94
2023-02-12T08:46:37.794Z,98308.31
2023-02-12T08:49:13.147Z,98299.47
2023-02-12T08:51:43.494Z,98304.47
2023-02-12T08:54:16.047Z,98295.50
2023-02-12T08:56:42.847Z,98298.09
2023-02-12T08:59:11.730Z,98300.31
2023-02-12T09:01:39.494Z,98318.00
2023-02-12T09:04:07.138Z,98316.19
2023-02-12T09:06:36.055Z,98311.75
2023-02-12T09:09:03.579Z,98320.75
2023-02-12T09:11:30.931Z,98311.69
2023-02-12T09:14:00.601Z,98318.00
2023-02-12T09:16:31.434Z,98322.81
2023-02-12T09:18:59.170Z,98308.75
2023-02-12T09:21:27.245Z,98311.72
2023-02-12T09:23:54.681Z,98327.72
2023-02-12T09:26:26.004Z,98293.28
2023-02-12T09:29:02.796Z,98333.25
2023-02-12T09:31:31.950Z,98324.25
2023-02-12T09:34:01.777Z,98329.06
2023-02-12T09:36:29.352Z,98321.88
2023-02-12T09:38:57.566Z,98333.97
2023-02-12T09:41:56.332Z,98325.28
2023-02-12T09:44:27.919Z,98316.81
2023-02-12T09:47:05.589Z,98326.94
2023-02-12T09:50:06.033Z,98339.53
2023-02-12T09:52:35.693Z,98335.25
2023-02-12T09:55:03.586Z,98331.47
2023-02-12T09:57:36.745Z,98338.38
2023-02-12T10:00:08.625Z,98339.66
2023-02-12T10:02:37.653Z,98334.44
2023-02-12T10:05:07.233Z,98312.56
2023-02-12T10:07:40.033Z,98341.50
2023-02-12T10:10:45.696Z,98341.63
2023-02-12T10:13:46.272Z,98339.25
2023-02-12T10:16:37.297Z,98348.59
2023-02-12T10:19:33.906Z,98343.88
2023-02-12T10:22:36.272Z,98348.66
2023-02-12T10:25:09.244Z,98354.16
2023-02-12T10:27:52.276Z,98344.31
2023-02-12T10:30:25.349Z,98352.88
2023-02-12T10:32:59.173Z,98359.63
2023-02-12T10:35:26.725Z,98367.03
2023-02-12T10:38:01.323Z,98358.78
2023-02-12T10:40:34.919Z,98362.78
2023-02-12T10:43:03.192Z,98346.28
2023-02-12T10:45:38.577Z,98379.78
2023-02-12T10:48:22.328Z,98365.38
2023-02-12T10:51:08.944Z,98374.28
2023-02-12T10:53:46.435Z,98376.19
2023-02-12T10:56:13.576Z,98384.72
2023-02-12T10:58:54.489Z,98384.09
2023-02-12T11:01:26.612Z,98368.97
2023-02-12T11:03:56.569Z,98379.78
2023-02-12T11:06:28.160Z,98375.13
2023-02-12T11:08:56.406Z,98382.44
2023-02-12T11:11:38.921Z,98394.91
2023-02-12T11:14:17.170Z,98384.84
2023-02-12T11:16:53.993Z,98376.50
2023-02-12T11:19:28.060Z,98392.16
2023-02-12T11:22:11.544Z,98370.84
2023-02-12T11:24:39.422Z,98381.28
2023-02-12T11:27:22.025Z,98387.75
2023-02-12T11:30:11.114Z,98369.91
2023-02-12T11:32:38.072Z,98387.09
2023-02-12T11:35:35.308Z,98390.16
2023-02-12T11:38:06.664Z,98372.53
2023-02-12T11:40:34.328Z,98380.06
2023-02-12T11:43:06.336Z,98377.34
2023-02-12T11:45:42.160Z,98381.63
2023-02-12T11:48:22.779Z,98373.41
2023-02-12T11:50:53.052Z,98398.34
2023-02-12T11:53:27.974Z,98370.47
2023-02-12T11:55:59.020Z,98402.56
2023-02-12T11:58:29.660Z,98413.16
2023-02-12T12:01:12.227Z,98411.59
2023-02-12T12:03:58.160Z,98409.56
2023-02-12T12:06:42.085Z,98408.81
2023-02-12T12:09:29.570Z,98402.53
2023-02-12T12:12:11.949Z,98399.31
2023-02-12T12:15:13.723Z,98412.69
2023-02-12T12:18:08.052Z,98419.84
2023-02-12T12:20:57.611Z,98411.25
2023-02-12T12:23:52.356Z,98409.06
2023-02-12T12:26:26.092Z,98398.94
2023-02-12T12:29:12.444Z,98402.88
2023-02-12T12:31:44.178Z,98393.25
2023-02-12T12:34:17.439Z,98412.00
2023-02-12T12:37:03.305Z,98407.91
2023-02-12T12:39:58.036Z,98405.38
2023-02-12T12:43:02.532Z,98405.38
2023-02-12T12:45:51.366Z,98411.06
2023-02-12T12:48:36.457Z,98408.25
2023-02-12T12:51:21.981Z,98414.84
2023-02-12T12:54:00.428Z,98416.38
2023-02-12T12:56:43.945Z,98416.38
2023-02-12T12:59:42.281Z,98421.88
2023-02-12T13:02:27.538Z,98416.09
2023-02-12T13:05:22.275Z,98422.84
2023-02-12T13:08:38.307Z,98424.84
2023-02-12T13:11:08.263Z,98430.38
2023-02-12T13:13:42.184Z,98436.28
2023-02-12T13:16:31.971Z,98433.53
2023-02-12T13:19:07.625Z,98428.44
2023-02-12T13:22:05.890Z,98443.19
2023-02-12T13:25:01.494Z,98447.75
2023-02-12T13:27:34.916Z,98448.31
2023-02-12T13:30:26.823Z,98464.31
2023-02-12T13:33:02.548Z,98466.22
2023-02-12T13:35:31.927Z,98468.09
2023-02-12T13:38:01.064Z,98467.22
2023-02-12T13:40:30.693Z,98474.41
2023-02-12T13:43:34.150Z,98483.72
2023-02-12T13:46:03.816Z,98480.41
2023-02-12T13:48:55.598Z,98479.31
2023-02-12T13:52:08.959Z,98483.09
2023-02-12T13:54:54.901Z,98493.03
2023-02-12T13:57:22.308Z,98497.81
2023-02-12T13:59:54.542Z,98514.75
2023-02-12T14:02:33.408Z,98518.41
2023-02-12T14:05:00.697Z,98516.91
2023-02-12T14:07:46.735Z,98524.84
2023-02-12T14:10:25.217Z,98518.78
2023-02-12T14:12:53.932Z,98525.81
2023-02-12T14:16:52.763Z,98529.25
2023-02-12T14:19:57.602Z,98547.91
2023-02-12T14:22:27.573Z,98555.66
2023-02-12T14:24:56.671Z,98565.25
2023-02-12T14:27:44.762Z,98567.94
2023-02-12T14:30:11.704Z,98567.13
2023-02-12T14:32:53.478Z,98573.25
2023-02-12T14:35:26.384Z,98574.34
2023-02-12T14:37:54.745Z,98574.34
2023-02-12T14:40:47.066Z,98581.47
2023-02-12T14:43:55.246Z,98569.25
2023-02-12T14:46:25.040Z,98590.06
2023-02-12T14:49:05.026Z,98589.47
2023-02-12T14:51:54.524Z,98596.22
2023-02-12T14:54:43.062Z,98609.41
2023-02-12T14:57:26.170Z,98620.03
2023-02-12T14:59:58.704Z,98623.88
2023-02-12T15:02:29.354Z,98613.72
2023-02-12T15:05:13.078Z,98608.00
2023-02-12T15:07:56.153Z,98622.75
2023-02-12T15:10:28.883Z,98634.47
2023-02-12T15:13:19.991Z,98637.00
2023-02-12T15:15:56.207Z,98640.66
2023-02-12T15:18:31.091Z,98624.59
2023-02-12T15:21:23.746Z,98642.53
2023-02-12T15:24:07.569Z,98653.81
2023-02-12T15:27:44.597Z,98654.19
2023-02-12T15:30:25.995Z,98663.72
2023-02-12T15:37:22.355Z,98664.66
2023-02-12T15:40:07.603Z,98650.59
2023-02-12T15:45:32.104Z,98672.31
2023-02-12T15:48:02.259Z,98687.72
2023-02-12T15:50:48.027Z,98678.34
2023-02-12T15:53:19.487Z,98689.56
2023-02-12T15:55:49.162Z,98705.91
2023-02-12T16:01:21.945Z,98707.91
2023-02-12T16:04:34.491Z,98723.19
2023-02-12T16:07:02.643Z,98721.09
2023-02-12T16:09:41.100Z,98736.66
2023-02-12T16:12:15.013Z,98738.59
2023-02-12T16:14:49.184Z,98748.63
2023-02-12T16:17:25.307Z,98754.84
2023-02-12T16:20:05.350Z,98761.75
2023-02-12T16:22:44.346Z,98758.28
2023-02-12T16:25:36.337Z,98761.13
2023-02-12T16:28:18.119Z,98774.44
2023-02-12T16:30:48.766Z,98777.25
2023-02-12T16:33:53.350Z,98783.47
2023-02-12T16:36:20.401Z,98786.88
2023-02-12T16:39:03.127Z,98784.53
2023-02-12T16:41:32.558Z,98801.00
2023-02-12T16:44:02.742Z,98802.78
2023-02-12T16:46:33.259Z,98802.97
2023-02-12T16:49:02.198Z,98821.00
2023-02-12T16:51:37.601Z,98815.97
2023-02-12T16:54:24.542Z,98816.94
2023-02-12T16:56:52.039Z,98818.00
2023-02-12T16:59:19.830Z,98819.72
2023-02-12T17:02:07.320Z,98836.34
2023-02-12T17:04:34.671Z,98810.06
2023-02-12T17:07:01.733Z,98813.59
2023-02-12T17:09:32.584Z,98822.91
2023-02-12T17:11:59.768Z,98837.41
2023-02-12T17:14:43.091Z,98841.53
2023-02-12T17:17:39.297Z,98834.88
2023-02-12T17:20:46.217Z,98839.31
2023-02-12T17:27:11.896Z,98856.53
2023-02-12T17:29:39.116Z,98850.72
2023-02-12T17:32:06.609Z,98855.91
2023-02-12T17:34:48.549Z,98869.84
2023-02-12T17:37:18.453Z,98868.94
2023-02-12T17:39:47.568Z,98867.41
2023-02-12T17:42:14.841Z,98859.63
2023-02-12T17:44:41.811Z,98858.00
2023-02-12T17:53:46.955Z,98871.84
2023-02-12T17:56:17.006Z,98870.28
2023-02-12T17:58:44.932Z,98874.81
2023-02-12T18:01:42.350Z,98875.94
2023-02-12T18:08:07.658Z,98878.19
2023-02-12T18:11:30.553Z,98880.09
2023-02-12T18:13:57.994Z,98891.28
2023-02-12T18:16:27.218Z,98892.38
2023-02-12T18:18:54.407Z,98894.28
2023-02-12T18:21:21.572Z,98897.78
2023-02-12T18:23:49.219Z,98896.84
2023-02-12T18:26:19.006Z,98905.47
2023-02-12T18:28:46.249Z,98901.13
2023-02-12T18:31:14.128Z,98902.91
2023-02-12T18:33:41.687Z,98910.06
2023-02-12T18:36:15.121Z,98903.47
2023-02-12T18:38:43.928Z,98912.13
2023-02-12T18:41:29.561Z,98907.09
2023-02-12T18:44:03.417Z,98921.50
2023-02-12T18:46:32.165Z,98918.03
2023-02-12T18:49:00.894Z,98922.44
2023-02-12T18:51:31.218Z,98915.53
2023-02-12T18:54:02.113Z,98927.56
2023-02-12T18:56:30.624Z,98942.31
2023-02-12T18:58:59.777Z,98926.72
2023-02-12T19:01:28.722Z,98930.19
2023-02-12T19:03:59.184Z,98938.09
2023-02-12T19:06:28.047Z,98931.06
2023-02-12T19:09:03.392Z,98931.97
2023-02-12T19:11:34.657Z,98932.78
2023-02-12T19:14:02.382Z,98951.72
2023-02-12T19:16:29.531Z,98944.16
2023-02-12T19:19:02.944Z,98944.31
2023-02-12T19:21:31.463Z,98948.66
2023-02-12T19:24:03.248Z,98951.28
2023-02-12T19:26:32.596Z,98955.69
2023-02-12T19:29:00.098Z,98953.09
2023-02-12T19:31:31.065Z,98959.22
2023-02-12T19:34:00.724Z,98952.09
2023-02-12T19:36:41.412Z,98942.06
2023-02-12T19:42:49.782Z,98938.72
2023-02-12T19:48:55.942Z,98936.41
2023-02-12T19:51:59.651Z,98965.34
2023-02-12T19:54:36.949Z,98956.00
2023-02-12T19:57:09.856Z,98957.97
2023-02-12T19:59:38.597Z,98965.59
2023-02-12T20:02:09.518Z,98938.28
2023-02-12T20:08:09.346Z,98964.66
2023-02-12T20:10:56.093Z,98959.66
2023-02-12T20:22:01.899Z,98972.16
2023-02-12T20:24:42.575Z,98969.66
2023-02-12T20:27:16.088Z,98986.84
2023-02-12T20:29:44.475Z,98987.69
2023-02-12T20:32:13.664Z,98988.59
2023-02-12T20:34:50.513Z,98991.22
2023-02-12T20:37:28.878Z,99000.72
2023-02-12T20:39:57.294Z,99003.31
2023-02-12T20:42:34.461Z,99006.75
2023-02-12T20:45:01.698Z,99013.66
2023-02-12T20:47:29.213Z,99011.88
2023-02-12T20:50:00.884Z,99015.34
2023-02-12T20:52:34.835Z,99022.13
2023-02-12T20:55:09.910Z,99015.22
2023-02-12T21:01:52.987Z,99022.28
2023-02-12T21:04:23.726Z,99012.94
2023-02-12T21:07:11.049Z,99019.66
2023-02-12T21:09:39.327Z,99024.81
2023-02-12T21:12:07.269Z,99013.72
2023-02-12T21:14:41.776Z,99020.47
2023-02-12T21:17:09.503Z,99030.94
2023-02-12T21:23:23.643Z,99020.56
2023-02-12T21:26:04.487Z,99036.03
2023-02-12T21:28:35.413Z,99029.22
2023-02-12T21:31:13.667Z,99044.53
2023-02-12T21:33:42.343Z,99050.44
2023-02-12T21:43:28.994Z,99044.31
2023-02-12T21:50:31.503Z,99044.31
2023-02-12T21:53:00.810Z,99051.22
2023-02-12T21:58:39.309Z,99038.44
2023-02-12T22:01:18.849Z,99041.03
2023-02-12T22:07:01.733Z,99045.25
2023-02-12T22:09:35.374Z,99059.00
2023-02-12T22:12:02.487Z,99063.31
2023-02-12T22:14:29.506Z,99055.56
2023-02-12T22:16:56.398Z,99068.41
2023-02-12T22:19:31.381Z,99060.66
2023-02-12T22:21:58.420Z,99052.97
2023-02-12T22:24:28.742Z,99064.88
2023-02-12T22:26:56.023Z,99076.22
2023-02-12T22:29:23.969Z,99078.00
2023-02-12T22:31:50.825Z,99074.44
2023-02-12T22:34:23.802Z,99072.78
2023-02-12T22:36:51.498Z,99078.00
2023-02-12T22:39:19.294Z,99079.59
2023-02-12T22:41:46.532Z,99066.75
2023-02-12T22:44:15.040Z,99063.38
2023-02-12T22:46:43.235Z,99074.66
2023-02-12T22:49:10.977Z,99066.94
2023-02-12T22:51:40.358Z,99067.72
2023-02-12T22:54:13.416Z,99073.72
2023-02-12T22:56:44.297Z,99063.38
2023-02-12T23:02:56.827Z,99085.88
2023-02-12T23:08:10.081Z,99084.16
2023-02-12T23:10:38.165Z,99091.03
2023-02-12T23:13:04.905Z,99093.63
2023-02-12T23:15:32.247Z,99094.56
2023-02-12T23:17:59.908Z,99094.56
2023-02-12T23:20:27.234Z,99099.81
2023-02-12T23:22:54.886Z,99091.25
2023-02-12T23:25:22.453Z,99089.47
2023-02-12T23:27:49.414Z,99087.88
2023-02-12T23:30:16.975Z,99088.78
2023-02-12T23:32:47.630Z,99085.50
2023-02-12T23:35:15.170Z,99082.94
2023-02-12T23:37:43.327Z,99079.50
2023-02-12T23:40:11.295Z,99088.22
2023-02-12T23:42:38.505Z,99087.41
2023-02-12T23:45:07.556Z,99084.84
2023-02-12T23:47:35.141Z,99086.63
2023-02-12T23:50:02.225Z,99085.81
2023-02-12T23:52:29.279Z,99091.91
2023-02-12T23:54:57.018Z,99092.81
2023-02-12T23:57:24.443Z,99089.41
2023-02-12T23:59:51.689Z,99090.19
